createdAt,value
2022-08-17T00:00:00.349Z,984.312
2022-08-17T00:01:00.614Z,984.4219
2022-08-17T00:02:01.472Z,984.4735
2022-08-17T00:03:00.792Z,984.3207
2022-08-17T00:04:00.947Z,984.2847
2022-08-17T00:05:01.101Z,984.3307
2022-08-17T00:06:01.237Z,984.3681
2022-08-17T00:07:00.416Z,984.4592
2022-08-17T00:08:00.577Z,984.4404
2022-08-17T00:09:00.722Z,984.3529
2022-08-17T00:10:00.857Z,984.3903
2022-08-17T00:11:01.005Z,984.3611
2022-08-17T00:12:42.054Z,984.5206
2022-08-17T00:13:00.352Z,984.5206
2022-08-17T00:14:00.468Z,984.5944
2022-08-17T00:15:00.633Z,984.4864
2022-08-17T00:16:00.787Z,984.3624
2022-08-17T00:17:00.938Z,984.4057
2022-08-17T00:18:01.106Z,984.5944
2022-08-17T00:19:08.440Z,984.4777
2022-08-17T00:20:00.400Z,984.4709
2022-08-17T00:21:00.541Z,984.5137
2022-08-17T00:22:32.989Z,984.4417
2022-08-17T00:23:00.866Z,984.5875
2022-08-17T00:24:00.997Z,984.5584
2022-08-17T00:25:01.226Z,984.5597
2022-08-17T00:26:00.308Z,984.5305
2022-08-17T00:27:00.446Z,984.6249
2022-08-17T00:28:00.628Z,984.4791
2022-08-17T00:29:00.754Z,984.4071
2022-08-17T00:30:00.902Z,984.5027
2022-08-17T00:31:01.049Z,984.4152
2022-08-17T00:32:01.204Z,984.4449
2022-08-17T00:33:14.542Z,984.5906
2022-08-17T00:34:00.513Z,984.5615
2022-08-17T00:35:00.667Z,984.6057
2022-08-17T00:36:00.800Z,984.5542
2022-08-17T00:37:00.955Z,984.5833
2022-08-17T00:38:01.132Z,984.5542
2022-08-17T00:39:01.257Z,984.4603
2022-08-17T00:40:00.506Z,984.4822
2022-08-17T00:41:00.557Z,984.5478
2022-08-17T00:42:00.718Z,984.5833
2022-08-17T00:43:00.896Z,984.5988
2022-08-17T00:44:01.033Z,984.5268
2022-08-17T00:45:01.178Z,984.556
2022-08-17T00:46:00.331Z,984.5851
2022-08-17T00:47:00.500Z,984.556
2022-08-17T00:48:00.637Z,984.5049
2022-08-17T00:49:00.768Z,984.5131
2022-08-17T00:50:00.922Z,984.5131
2022-08-17T00:51:01.068Z,984.484
2022-08-17T00:52:01.244Z,984.4921
2022-08-17T00:53:00.378Z,984.4202
2022-08-17T00:54:00.510Z,984.4352
2022-08-17T00:55:00.659Z,984.5809
2022-08-17T00:56:00.812Z,984.5016
2022-08-17T00:57:00.987Z,984.7057
2022-08-17T00:58:01.155Z,984.6187
2022-08-17T00:59:00.308Z,984.497
2022-08-17T01:00:03.309Z,984.6427
2022-08-17T01:01:00.666Z,984.5703
2022-08-17T01:02:00.735Z,984.5566
2022-08-17T01:03:00.906Z,984.5498
2022-08-17T01:04:01.076Z,984.6663
2022-08-17T01:05:01.199Z,984.7692
2022-08-17T01:06:00.349Z,984.5944
2022-08-17T01:07:00.496Z,984.7692
2022-08-17T01:08:00.643Z,984.7259
2022-08-17T01:09:00.825Z,984.6476
2022-08-17T01:10:00.944Z,984.5893
2022-08-17T01:11:01.977Z,984.5893
2022-08-17T01:12:01.257Z,984.582
2022-08-17T01:13:00.410Z,984.5893
2022-08-17T01:14:00.590Z,984.7414
2022-08-17T01:15:00.712Z,984.5893
2022-08-17T01:16:00.872Z,984.5893
2022-08-17T01:17:01.033Z,984.6626
2022-08-17T01:18:01.181Z,984.6999
2022-08-17T01:19:00.348Z,984.7444
2022-08-17T01:20:00.476Z,984.717
2022-08-17T01:21:00.626Z,984.5864
2022-08-17T01:22:00.769Z,984.7269
2022-08-17T01:23:00.921Z,984.6105
2022-08-17T01:24:01.094Z,984.5814
2022-08-17T01:25:01.228Z,984.5895
2022-08-17T01:26:00.376Z,984.5895
2022-08-17T01:27:00.531Z,984.5522
2022-08-17T01:28:00.674Z,984.6105
2022-08-17T01:29:00.861Z,984.6687
2022-08-17T01:30:00.976Z,984.5522
2022-08-17T01:31:01.145Z,984.4598
2022-08-17T01:32:00.279Z,984.5917
2022-08-17T01:33:00.431Z,984.5044
2022-08-17T01:34:00.656Z,984.5917
2022-08-17T01:35:00.746Z,984.4753
2022-08-17T01:36:00.888Z,984.5558
2022-08-17T01:37:01.037Z,984.5053
2022-08-17T01:38:01.183Z,984.6731
2022-08-17T01:39:00.363Z,984.7022
2022-08-17T01:40:00.611Z,984.5939
2022-08-17T01:41:00.641Z,984.4638
2022-08-17T01:42:00.793Z,984.6094
2022-08-17T01:43:00.945Z,984.4638
2022-08-17T01:44:01.083Z,984.5357
2022-08-17T01:45:01.242Z,984.5293
2022-08-17T01:46:03.132Z,984.5152
2022-08-17T01:47:00.529Z,984.5666
2022-08-17T01:48:00.684Z,984.7412
2022-08-17T01:49:00.834Z,984.5888
2022-08-17T01:50:01.003Z,984.7566
2022-08-17T01:51:01.148Z,984.481
2022-08-17T01:52:00.308Z,984.5683
2022-08-17T01:53:00.443Z,984.6847
2022-08-17T01:54:00.586Z,984.6265
2022-08-17T01:55:00.731Z,984.6193
2022-08-17T01:56:00.897Z,984.6484
2022-08-17T01:57:01.063Z,984.6929
2022-08-17T01:58:01.330Z,984.5697
2022-08-17T01:59:00.354Z,984.6946
2022-08-17T02:00:00.492Z,984.7737
2022-08-17T02:01:01.643Z,984.8383
2022-08-17T02:02:00.838Z,984.4478
2022-08-17T02:03:00.951Z,984.6228
2022-08-17T02:04:01.850Z,984.8023
2022-08-17T02:05:01.252Z,984.7405
2022-08-17T02:06:00.409Z,984.7664
2022-08-17T02:07:00.591Z,984.58
2022-08-17T02:08:00.953Z,984.4055
2022-08-17T02:09:02.689Z,984.4632
2022-08-17T02:10:00.992Z,984.4055
2022-08-17T02:11:01.138Z,984.7405
2022-08-17T02:12:00.319Z,984.6327
2022-08-17T02:13:00.440Z,984.5113
2022-08-17T02:14:03.220Z,984.4531
2022-08-17T02:15:00.757Z,984.4099
2022-08-17T02:16:00.900Z,984.4681
2022-08-17T02:17:01.064Z,984.5263
2022-08-17T02:18:01.229Z,984.4322
2022-08-17T02:19:00.342Z,984.439
2022-08-17T02:20:00.498Z,984.4172
2022-08-17T02:21:00.656Z,984.4754
2022-08-17T02:22:00.801Z,984.4031
2022-08-17T02:23:00.995Z,984.4099
2022-08-17T02:24:01.118Z,984.5721
2022-08-17T02:25:02.183Z,984.384
2022-08-17T02:26:00.421Z,984.5294
2022-08-17T02:27:00.568Z,984.384
2022-08-17T02:28:00.754Z,984.384
2022-08-17T02:29:00.888Z,984.413
2022-08-17T02:30:01.034Z,984.3122
2022-08-17T02:31:03.258Z,984.3849
2022-08-17T02:32:00.345Z,984.4657
2022-08-17T02:33:00.524Z,984.3135
2022-08-17T02:34:04.516Z,984.3939
2022-08-17T02:35:00.805Z,984.4157
2022-08-17T02:36:00.954Z,984.3508
2022-08-17T02:37:01.087Z,984.3662
2022-08-17T02:38:01.286Z,984.467
2022-08-17T02:39:00.394Z,984.4688
2022-08-17T02:40:00.596Z,984.4039
2022-08-17T02:41:00.706Z,984.4175
2022-08-17T02:42:00.855Z,984.4688
2022-08-17T02:43:01.021Z,984.4039
2022-08-17T02:44:01.177Z,984.3321
2022-08-17T02:45:00.300Z,984.3471
2022-08-17T02:46:00.465Z,984.3471
2022-08-17T02:47:00.624Z,984.4052
2022-08-17T02:48:00.783Z,984.2889
2022-08-17T02:49:00.925Z,984.4052
2022-08-17T02:50:01.099Z,984.3761
2022-08-17T02:51:01.228Z,984.3279
2022-08-17T02:52:00.390Z,984.4664
2022-08-17T02:53:02.280Z,984.3502
2022-08-17T02:54:39.226Z,984.3148
2022-08-17T02:55:00.882Z,984.3148
2022-08-17T02:56:00.992Z,984.3011
2022-08-17T02:57:01.141Z,984.3011
2022-08-17T02:58:00.308Z,984.2734
2022-08-17T02:59:00.453Z,984.2871
2022-08-17T03:00:00.622Z,984.4033
2022-08-17T03:01:00.743Z,984.2584
2022-08-17T03:02:00.981Z,984.2734
2022-08-17T03:03:01.042Z,984.3315
2022-08-17T03:04:01.200Z,984.2294
2022-08-17T03:05:00.379Z,984.1708
2022-08-17T03:06:00.505Z,984.4614
2022-08-17T03:07:00.649Z,984.2802
2022-08-17T03:08:00.797Z,984.3315
2022-08-17T03:09:00.954Z,984.2525
2022-08-17T03:10:01.118Z,984.3179
2022-08-17T03:11:01.261Z,984.3179
2022-08-17T03:12:00.394Z,984.1944
2022-08-17T03:13:00.551Z,984.282
2022-08-17T03:14:00.701Z,984.1808
2022-08-17T03:15:00.847Z,984.2394
2022-08-17T03:16:01.030Z,984.4205
2022-08-17T03:17:01.167Z,984.1962
2022-08-17T03:18:00.302Z,984.1522
2022-08-17T03:19:00.452Z,984.1449
2022-08-17T03:20:00.608Z,984.1449
2022-08-17T03:21:00.775Z,984.1962
2022-08-17T03:22:00.900Z,984.2044
2022-08-17T03:23:02.733Z,984.0819
2022-08-17T03:24:01.247Z,984.1109
2022-08-17T03:25:00.407Z,984.1549
2022-08-17T03:26:00.570Z,984.105
2022-08-17T03:27:00.702Z,984.3818
2022-08-17T03:28:00.851Z,984.3818
2022-08-17T03:29:01.005Z,984.3609
2022-08-17T03:30:01.165Z,984.3028
2022-08-17T03:31:00.327Z,984.1953
2022-08-17T03:32:00.496Z,984.1526
2022-08-17T03:33:00.618Z,984.11
2022-08-17T03:34:00.764Z,984.11
2022-08-17T03:35:00.918Z,984.1817
2022-08-17T03:36:01.068Z,984.1613
2022-08-17T03:37:01.252Z,984.2411
2022-08-17T03:38:01.195Z,984.2053
2022-08-17T03:39:00.523Z,984.1694
2022-08-17T03:40:00.771Z,984.3354
2022-08-17T03:41:00.833Z,984.2329
2022-08-17T03:42:00.997Z,984.1903
2022-08-17T03:43:01.157Z,984.2053
2022-08-17T03:44:00.288Z,984.2053
2022-08-17T03:45:00.422Z,984.1563
2022-08-17T03:46:00.584Z,984.1426
2022-08-17T03:47:00.738Z,984.1866
2022-08-17T03:48:00.912Z,984.383
2022-08-17T03:49:01.027Z,984.3553
2022-08-17T03:50:01.200Z,984.2324
2022-08-17T03:51:00.345Z,984.183
2022-08-17T03:52:00.498Z,984.3721
2022-08-17T03:53:00.666Z,984.3294
2022-08-17T03:54:00.792Z,984.2564
2022-08-17T03:55:00.948Z,984.2786
2022-08-17T03:56:01.102Z,984.256
2022-08-17T03:57:01.268Z,984.2991
2022-08-17T03:58:00.429Z,984.2769
2022-08-17T03:59:00.556Z,984.2206
2022-08-17T04:00:00.720Z,984.4609
2022-08-17T04:01:00.936Z,984.3752
2022-08-17T04:02:01.021Z,984.3407
2022-08-17T04:03:01.202Z,984.2605
2022-08-17T04:04:00.321Z,984.4332
2022-08-17T04:05:00.471Z,984.411
2022-08-17T04:06:00.615Z,984.3738
2022-08-17T04:07:00.767Z,984.251
2022-08-17T04:08:00.922Z,984.2578
2022-08-17T04:09:01.096Z,984.2659
2022-08-17T04:10:01.224Z,984.4622
2022-08-17T04:11:00.365Z,984.3308
2022-08-17T04:12:02.552Z,984.4029
2022-08-17T04:13:00.661Z,984.3294
2022-08-17T04:14:00.840Z,984.3281
2022-08-17T04:15:00.973Z,984.3639
2022-08-17T04:16:01.132Z,984.3127
2022-08-17T04:17:00.274Z,984.3281
2022-08-17T04:18:00.428Z,984.1843
2022-08-17T04:19:00.695Z,984.2714
2022-08-17T04:20:00.734Z,984.3294
2022-08-17T04:21:00.888Z,984.2714
2022-08-17T04:22:01.041Z,984.2855
2022-08-17T04:23:01.196Z,984.2855
2022-08-17T04:24:00.358Z,984.3861
2022-08-17T04:25:00.503Z,984.3639
2022-08-17T04:26:00.675Z,984.3281
2022-08-17T04:27:00.807Z,984.4714
2022-08-17T04:28:00.973Z,984.3113
2022-08-17T04:29:01.145Z,984.349
2022-08-17T04:30:00.299Z,984.3775
2022-08-17T04:31:00.433Z,984.2683
2022-08-17T04:32:00.587Z,984.3263
2022-08-17T04:33:05.887Z,984.3263
2022-08-17T04:34:00.918Z,984.3694
2022-08-17T04:35:01.054Z,984.2891
2022-08-17T04:36:01.200Z,984.4619
2022-08-17T04:37:00.349Z,984.3168
2022-08-17T04:38:00.489Z,984.3027
2022-08-17T04:39:00.666Z,984.2297
2022-08-17T04:40:03.903Z,984.1426
2022-08-17T04:41:00.943Z,984.3014
2022-08-17T04:42:01.103Z,984.2275
2022-08-17T04:43:01.252Z,984.2139
2022-08-17T04:44:00.399Z,984.2053
2022-08-17T04:45:00.585Z,984.3423
2022-08-17T04:46:00.704Z,984.2774
2022-08-17T04:47:00.874Z,984.4003
2022-08-17T04:48:01.067Z,984.2756
2022-08-17T04:49:01.177Z,984.3695
2022-08-17T04:50:00.359Z,984.3695
2022-08-17T04:51:00.476Z,984.3899
2022-08-17T04:52:04.242Z,984.3319
2022-08-17T04:53:01.208Z,984.3101
2022-08-17T04:54:00.939Z,984.3459
2022-08-17T04:55:01.110Z,984.3818
2022-08-17T04:56:01.240Z,984.4535
2022-08-17T04:57:00.389Z,984.4326
2022-08-17T04:58:00.534Z,984.6141
2022-08-17T04:59:00.701Z,984.556
2022-08-17T05:00:00.882Z,984.4535
2022-08-17T05:01:01.082Z,984.4894
2022-08-17T05:02:01.153Z,984.4894
2022-08-17T05:03:00.303Z,984.5756
2022-08-17T05:04:00.465Z,984.4658
2022-08-17T05:05:00.647Z,984.7191
2022-08-17T05:06:00.765Z,984.4205
2022-08-17T05:07:00.899Z,984.4849
2022-08-17T05:08:01.053Z,984.564
2022-08-17T05:09:01.198Z,984.5776
2022-08-17T05:10:00.379Z,984.4823
2022-08-17T05:11:00.532Z,984.5404
2022-08-17T05:12:00.654Z,984.569
2022-08-17T05:13:00.799Z,984.6117
2022-08-17T05:14:00.947Z,984.6344
2022-08-17T05:15:01.096Z,984.54
2022-08-17T05:17:00.389Z,984.6053
2022-08-17T05:18:00.515Z,984.6408
2022-08-17T05:19:00.662Z,984.5314
2022-08-17T05:20:00.813Z,984.6031
2022-08-17T05:21:00.959Z,984.4578
2022-08-17T05:22:01.134Z,984.6668
2022-08-17T05:23:01.252Z,984.5283
2022-08-17T05:24:00.397Z,984.6073
2022-08-17T05:25:01.841Z,984.715
2022-08-17T05:26:00.703Z,984.6265
2022-08-17T05:27:06.133Z,984.6029
2022-08-17T05:28:01.034Z,984.7657
2022-08-17T05:29:02.819Z,984.593
2022-08-17T05:30:00.329Z,984.5985
2022-08-17T05:31:00.475Z,984.7418
2022-08-17T05:32:00.722Z,984.7405
2022-08-17T05:33:00.794Z,984.5355
2022-08-17T05:34:00.944Z,984.5406
2022-08-17T05:35:01.104Z,984.5974
2022-08-17T05:36:01.254Z,984.6248
2022-08-17T05:37:00.443Z,984.6025
2022-08-17T05:38:00.558Z,984.7313
2022-08-17T05:39:00.703Z,984.7714
2022-08-17T05:40:00.927Z,984.6072
2022-08-17T05:41:01.008Z,984.6122
2022-08-17T05:42:01.177Z,984.6241
2022-08-17T05:43:00.306Z,984.717
2022-08-17T05:44:00.453Z,984.693
2022-08-17T05:45:00.614Z,984.597
2022-08-17T05:46:00.762Z,984.6899
2022-08-17T05:47:00.932Z,984.6372
2022-08-17T05:48:01.061Z,984.6427
2022-08-17T05:49:01.219Z,984.7835
2022-08-17T05:50:00.360Z,984.7408
2022-08-17T05:51:00.521Z,984.7946
2022-08-17T05:52:00.694Z,984.6863
2022-08-17T05:53:00.841Z,984.5769
2022-08-17T05:54:00.992Z,984.6266
2022-08-17T05:55:01.152Z,984.582
2022-08-17T05:56:00.298Z,984.6682
2022-08-17T05:57:00.456Z,984.7385
2022-08-17T05:58:00.619Z,984.7011
2022-08-17T05:59:00.769Z,984.6925
2022-08-17T06:00:00.944Z,984.7491
2022-08-17T06:01:01.159Z,984.8266
2022-08-17T06:02:01.229Z,984.6908
2022-08-17T06:03:00.379Z,984.6393
2022-08-17T06:04:00.532Z,984.7957
2022-08-17T06:05:00.694Z,984.5349
2022-08-17T06:06:00.845Z,984.6262
2022-08-17T06:07:00.993Z,984.5721
2022-08-17T06:08:01.151Z,984.6497
2022-08-17T06:09:00.300Z,984.6754
2022-08-17T06:10:00.475Z,984.6951
2022-08-17T06:11:00.607Z,984.7504
2022-08-17T06:12:00.754Z,984.7971
2022-08-17T06:13:00.912Z,984.8169
2022-08-17T06:14:01.059Z,984.6996
2022-08-17T06:15:01.248Z,984.7563
2022-08-17T06:16:00.357Z,984.7413
2022-08-17T06:17:00.502Z,984.8103
2022-08-17T06:18:00.670Z,984.7692
2022-08-17T06:19:00.817Z,984.7244
2022-08-17T06:20:00.998Z,984.687
2022-08-17T06:21:01.154Z,984.773
2022-08-17T06:22:00.279Z,984.656
2022-08-17T06:23:00.424Z,984.7575
2022-08-17T06:24:00.575Z,984.6474
2022-08-17T06:25:00.753Z,984.7183
2022-08-17T06:26:00.874Z,984.6804
2022-08-17T06:27:01.038Z,984.7363
2022-08-17T06:28:01.192Z,984.7328
2022-08-17T06:29:00.365Z,984.7297
2022-08-17T06:30:00.511Z,984.9147
2022-08-17T06:31:01.393Z,984.7167
2022-08-17T06:32:00.807Z,984.7433
2022-08-17T06:33:00.955Z,984.7471
2022-08-17T06:34:01.102Z,984.794
2022-08-17T06:35:00.290Z,984.9236
2022-08-17T06:36:00.448Z,984.7354
2022-08-17T06:37:00.572Z,984.6755
2022-08-17T06:38:00.725Z,984.8314
2022-08-17T06:39:00.885Z,984.7004
2022-08-17T06:40:01.107Z,984.7642
2022-08-17T06:41:01.171Z,984.6676
2022-08-17T06:42:00.312Z,984.6951
2022-08-17T06:43:06.710Z,984.8666
2022-08-17T06:44:00.627Z,984.808
2022-08-17T06:45:00.803Z,984.9839
2022-08-17T06:46:00.945Z,984.811
2022-08-17T06:47:01.105Z,984.93
2022-08-17T06:48:01.242Z,985.1646
2022-08-17T06:49:00.427Z,984.93
2022-08-17T06:50:00.547Z,984.8128
2022-08-17T06:51:00.712Z,984.899
2022-08-17T06:52:00.860Z,984.7886
2022-08-17T06:53:01.225Z,984.8459
2022-08-17T06:54:01.200Z,984.8649
2022-08-17T06:55:00.325Z,984.8274
2022-08-17T06:56:00.483Z,984.9222
2022-08-17T06:57:00.638Z,984.7967
2022-08-17T06:58:00.786Z,984.8092
2022-08-17T06:59:00.960Z,984.7367
2022-08-17T07:00:01.085Z,984.7419
2022-08-17T07:01:01.296Z,984.9356
2022-08-17T07:02:00.455Z,984.9343
2022-08-17T07:03:00.568Z,984.8462
2022-08-17T07:04:05.005Z,984.8531
2022-08-17T07:05:00.871Z,984.9692
2022-08-17T07:06:01.023Z,985.078
2022-08-17T07:07:01.180Z,984.7762
2022-08-17T07:08:00.334Z,984.79
2022-08-17T07:09:00.511Z,984.7676
2022-08-17T07:10:00.633Z,984.7395
2022-08-17T07:11:00.783Z,984.5625
2022-08-17T07:12:00.929Z,984.8353
2022-08-17T07:13:01.089Z,984.8564
2022-08-17T07:14:01.266Z,984.8772
2022-08-17T07:15:00.397Z,984.7697
2022-08-17T07:16:00.540Z,984.7096
2022-08-17T07:17:00.686Z,984.6871
2022-08-17T07:18:01.224Z,984.859
2022-08-17T07:19:01.019Z,984.8214
2022-08-17T07:20:01.142Z,984.7138
2022-08-17T07:21:00.294Z,984.7497
2022-08-17T07:22:00.445Z,984.6758
2022-08-17T07:23:00.767Z,984.8352
2022-08-17T07:24:00.779Z,984.8127
2022-08-17T07:25:00.901Z,984.6533
2022-08-17T07:26:01.053Z,984.7484
2022-08-17T07:27:01.202Z,984.6745
2022-08-17T07:28:00.349Z,984.7034
2022-08-17T07:29:00.521Z,984.7958
2022-08-17T07:30:00.654Z,984.8097
2022-08-17T07:31:00.800Z,984.8896
2022-08-17T07:32:00.965Z,984.7859
2022-08-17T07:33:01.124Z,984.7054
2022-08-17T07:34:01.285Z,984.8269
2022-08-17T07:35:00.408Z,984.7335
2022-08-17T07:36:00.554Z,984.6371
2022-08-17T07:37:00.734Z,984.8757
2022-08-17T07:38:00.858Z,984.8381
2022-08-17T07:39:01.040Z,984.6928
2022-08-17T07:40:15.118Z,984.7135
2022-08-17T07:41:00.313Z,984.6759
2022-08-17T07:42:00.471Z,984.5974
2022-08-17T07:43:00.637Z,984.6597
2022-08-17T07:44:00.837Z,984.7003
2022-08-17T07:45:00.914Z,984.7128
2022-08-17T07:46:01.066Z,984.6227
2022-08-17T07:47:01.214Z,984.7668
2022-08-17T07:48:00.354Z,984.6338
2022-08-17T07:49:00.522Z,984.5749
2022-08-17T07:50:00.690Z,984.6407
2022-08-17T07:51:00.813Z,984.6113
2022-08-17T07:52:48.247Z,984.6927
2022-08-17T07:53:01.118Z,984.7914
2022-08-17T07:54:13.447Z,984.7048
2022-08-17T07:55:00.454Z,984.7814
2022-08-17T07:56:00.597Z,984.7602
2022-08-17T07:57:00.755Z,984.7086
2022-08-17T07:58:00.888Z,984.794
2022-08-17T07:59:01.051Z,984.8304
2022-08-17T08:00:01.435Z,984.8065
2022-08-17T08:01:00.340Z,984.7813
2022-08-17T08:02:00.565Z,984.9118
2022-08-17T08:03:00.647Z,984.7678
2022-08-17T08:04:00.797Z,984.7383
2022-08-17T08:05:02.020Z,984.7647
2022-08-17T08:06:01.114Z,984.7716
2022-08-17T08:07:00.268Z,984.6735
2022-08-17T08:08:00.421Z,984.801
2022-08-17T08:09:00.577Z,984.7211
2022-08-17T08:10:00.759Z,984.9381
2022-08-17T08:11:00.875Z,984.8114
2022-08-17T08:12:01.036Z,984.8622
2022-08-17T08:13:01.191Z,984.817
2022-08-17T08:14:00.332Z,984.8465
2022-08-17T08:15:00.507Z,984.7774
2022-08-17T08:16:00.640Z,984.8113
2022-08-17T08:17:00.793Z,984.7208
2022-08-17T08:18:00.945Z,984.9063
2022-08-17T08:19:01.084Z,984.8007
2022-08-17T08:20:01.275Z,984.6837
2022-08-17T08:21:00.383Z,984.6598
2022-08-17T08:22:00.541Z,984.7732
2022-08-17T08:23:00.679Z,984.861
2022-08-17T08:24:00.834Z,984.9023
2022-08-17T08:25:00.993Z,984.8401
2022-08-17T08:26:01.127Z,984.9262
2022-08-17T08:27:00.283Z,984.7208
2022-08-17T08:28:00.468Z,984.8048
2022-08-17T08:29:00.596Z,984.8979
2022-08-17T08:30:00.742Z,984.88
2022-08-17T08:31:00.899Z,984.839
2022-08-17T08:32:01.043Z,984.8465
2022-08-17T08:33:01.224Z,984.883
2022-08-17T08:34:00.343Z,984.9928
2022-08-17T08:35:02.802Z,984.8503
2022-08-17T08:36:00.655Z,984.8372
2022-08-17T08:37:17.125Z,984.7717
2022-08-17T08:38:00.971Z,984.7673
2022-08-17T08:39:01.106Z,984.9125
2022-08-17T08:40:01.317Z,984.8357
2022-08-17T08:41:00.408Z,984.8274
2022-08-17T08:42:00.565Z,984.9954
2022-08-17T08:43:00.724Z,984.864
2022-08-17T08:44:00.880Z,984.8465
2022-08-17T08:45:04.455Z,984.8779
2022-08-17T08:46:01.166Z,984.9159
2022-08-17T08:47:00.304Z,984.7862
2022-08-17T08:48:05.553Z,984.8351
2022-08-17T08:49:04.930Z,984.6984
2022-08-17T08:50:04.687Z,984.7211
2022-08-17T08:51:00.927Z,984.9014
2022-08-17T08:52:01.068Z,984.7953
2022-08-17T08:53:01.213Z,984.6541
2022-08-17T08:54:00.376Z,984.9862
2022-08-17T08:55:00.521Z,984.72
2022-08-17T08:56:00.716Z,984.7313
2022-08-17T08:57:23.240Z,984.7073
2022-08-17T08:58:00.998Z,984.7321
2022-08-17T08:59:01.135Z,984.7136
2022-08-17T09:00:00.301Z,984.7713
2022-08-17T09:01:00.498Z,984.9612
2022-08-17T09:02:00.601Z,984.7954
2022-08-17T09:03:00.771Z,984.8321
2022-08-17T09:04:18.354Z,984.7783
2022-08-17T09:05:14.955Z,984.734
2022-08-17T09:06:01.193Z,984.857
2022-08-17T09:07:00.347Z,984.8925
2022-08-17T09:08:00.508Z,984.8298
2022-08-17T09:09:00.657Z,984.8141
2022-08-17T09:10:00.794Z,984.7816
2022-08-17T09:11:00.933Z,984.8841
2022-08-17T09:12:03.489Z,984.8893
2022-08-17T09:13:09.347Z,984.8363
2022-08-17T09:14:00.393Z,984.9103
2022-08-17T09:15:00.536Z,984.7907
2022-08-17T09:16:00.680Z,984.7473
2022-08-17T09:17:00.831Z,984.7881
2022-08-17T09:18:39.595Z,984.7297
2022-08-17T09:19:04.292Z,984.5649
2022-08-17T09:20:00.276Z,984.6548
2022-08-17T09:21:00.434Z,984.6898
2022-08-17T09:22:00.588Z,984.7695
2022-08-17T09:23:00.746Z,984.62
2022-08-17T09:24:00.913Z,984.5893
2022-08-17T09:25:01.055Z,984.7081
2022-08-17T09:26:01.194Z,984.7379
2022-08-17T09:27:00.346Z,984.7607
2022-08-17T09:28:00.907Z,984.6117
2022-08-17T09:29:00.664Z,984.6677
2022-08-17T09:30:00.844Z,984.6874
2022-08-17T09:31:00.955Z,984.7953
2022-08-17T09:32:01.114Z,984.7373
2022-08-17T09:33:00.263Z,984.7215
2022-08-17T09:34:00.423Z,984.6637
2022-08-17T09:35:00.587Z,984.618
2022-08-17T09:36:00.762Z,984.801
2022-08-17T09:37:00.873Z,984.6903
2022-08-17T09:38:01.036Z,984.7043
2022-08-17T09:39:01.171Z,984.75
2022-08-17T09:40:00.504Z,984.6903
2022-08-17T09:41:00.487Z,984.6054
2022-08-17T09:42:00.622Z,984.6611
2022-08-17T09:43:00.772Z,984.5762
2022-08-17T09:44:00.918Z,984.5934
2022-08-17T09:45:01.068Z,984.6688
2022-08-17T09:46:01.240Z,984.5947
2022-08-17T09:47:00.368Z,984.6656
2022-08-17T09:48:00.529Z,984.5893
2022-08-17T09:49:00.672Z,984.7273
2022-08-17T09:50:00.833Z,984.5256
2022-08-17T09:51:05.983Z,984.5349
2022-08-17T09:52:01.135Z,984.5909
2022-08-17T09:53:00.286Z,984.6903
2022-08-17T09:54:15.104Z,984.6149
2022-08-17T09:55:00.633Z,984.4644
2022-08-17T09:56:00.781Z,984.2998
2022-08-17T09:57:28.038Z,984.3945
2022-08-17T09:58:01.045Z,984.402
2022-08-17T09:59:01.224Z,984.3735
2022-08-17T10:00:00.351Z,984.4915
2022-08-17T10:01:00.560Z,984.4523
2022-08-17T10:02:00.657Z,984.465
2022-08-17T10:03:00.812Z,984.4991
2022-08-17T10:04:00.979Z,984.4394
2022-08-17T10:05:01.099Z,984.6167
2022-08-17T10:06:01.252Z,984.4577
2022-08-17T10:07:00.407Z,984.4647
2022-08-17T10:08:00.582Z,984.6027
2022-08-17T10:09:00.737Z,984.5373
2022-08-17T10:10:00.870Z,984.472
2022-08-17T10:11:01.027Z,984.4137
2022-08-17T10:12:01.169Z,984.498
2022-08-17T10:13:00.318Z,984.4458
2022-08-17T10:14:00.509Z,984.3825
2022-08-17T10:15:08.041Z,984.4306
2022-08-17T10:16:00.778Z,984.4478
2022-08-17T10:17:00.939Z,984.3264
2022-08-17T10:18:01.086Z,984.3176
2022-08-17T10:19:01.259Z,984.2561
2022-08-17T10:20:00.394Z,984.4668
2022-08-17T10:21:00.544Z,984.3787
2022-08-17T10:22:14.732Z,984.3721
2022-08-17T10:23:00.848Z,984.3875
2022-08-17T10:24:01.021Z,984.373
2022-08-17T10:25:22.235Z,984.3423
2022-08-17T10:26:00.309Z,984.3423
2022-08-17T10:27:00.458Z,984.3176
2022-08-17T10:28:00.613Z,984.3881
2022-08-17T10:29:00.788Z,984.3214
2022-08-17T10:30:00.979Z,984.3088
2022-08-17T10:31:30.992Z,984.3488
2022-08-17T10:32:01.229Z,984.3138
2022-08-17T10:33:00.403Z,984.4187
2022-08-17T10:34:00.577Z,984.3735
2022-08-17T10:35:00.690Z,984.3032
2022-08-17T10:36:00.838Z,984.4668
2022-08-17T10:37:01.003Z,984.2295
2022-08-17T10:38:01.147Z,984.305
2022-08-17T10:39:00.317Z,984.2612
2022-08-17T10:40:00.522Z,984.2295
2022-08-17T10:41:00.609Z,984.2822
2022-08-17T10:42:00.760Z,984.1959
2022-08-17T10:43:00.906Z,984.4517
2022-08-17T10:44:38.828Z,984.3934
2022-08-17T10:45:01.213Z,984.3282
2022-08-17T10:46:10.531Z,984.2401
2022-08-17T10:47:00.515Z,984.3454
2022-08-17T10:48:05.301Z,984.3542
2022-08-17T10:49:00.832Z,984.4012
2022-08-17T10:50:00.985Z,984.2526
2022-08-17T10:51:01.121Z,984.3644
2022-08-17T10:53:00.368Z,984.3649
2022-08-17T10:54:00.548Z,984.2382
2022-08-17T10:55:00.737Z,984.2526
2022-08-17T10:56:00.858Z,984.3034
2022-08-17T10:57:01.007Z,984.3156
2022-08-17T10:58:01.164Z,984.3282
2022-08-17T10:59:00.312Z,984.2019
2022-08-17T11:00:00.493Z,984.2997
2022-08-17T11:01:00.648Z,984.2997
2022-08-17T11:02:00.771Z,984.2559
2022-08-17T11:03:00.916Z,984.2489
2022-08-17T11:04:01.075Z,984.3384
2022-08-17T11:05:01.257Z,984.3808
2022-08-17T11:06:00.379Z,984.3655
2022-08-17T11:07:00.540Z,984.4773
2022-08-17T11:08:00.679Z,984.3808
2022-08-17T11:09:00.841Z,984.4405
2022-08-17T11:10:01.005Z,984.3356
2022-08-17T11:11:01.166Z,984.3128
2022-08-17T11:12:00.292Z,984.3735
2022-08-17T11:13:00.449Z,984.2332
2022-08-17T11:14:00.589Z,984.2902
2022-08-17T11:15:00.753Z,984.3569
2022-08-17T11:16:04.852Z,984.1983
2022-08-17T11:17:01.067Z,984.2998
2022-08-17T11:18:01.203Z,984.1376
2022-08-17T11:19:00.375Z,984.2728
2022-08-17T11:20:00.504Z,984.2234
2022-08-17T11:21:00.678Z,984.4517
2022-08-17T11:22:00.814Z,984.4517
2022-08-17T11:23:00.960Z,984.064
2022-08-17T11:24:01.126Z,984.1819
2022-08-17T11:26:00.368Z,984.126
2022-08-17T11:27:00.529Z,984.1572
2022-08-17T11:28:00.707Z,984.0924
2022-08-17T11:29:00.899Z,984.064
2022-08-17T11:30:02.579Z,984.1819
2022-08-17T11:31:01.166Z,984.091
2022-08-17T11:32:00.325Z,984.1036
2022-08-17T11:33:00.473Z,984.126
2022-08-17T11:34:00.663Z,984.0747
2022-08-17T11:35:00.790Z,984.0523
2022-08-17T11:36:00.927Z,983.9912
2022-08-17T11:37:01.078Z,984.0346
2022-08-17T11:38:01.229Z,984.1596
2022-08-17T11:39:00.391Z,984.1722
2022-08-17T11:40:00.656Z,984.0598
2022-08-17T11:41:00.677Z,984.0896
2022-08-17T11:42:00.834Z,984.0015
2022-08-17T11:43:00.978Z,984.091
2022-08-17T11:44:01.901Z,983.939
2022-08-17T11:45:00.303Z,983.8988
2022-08-17T11:46:00.430Z,983.994
2022-08-17T11:47:00.583Z,983.8362
2022-08-17T11:48:26.638Z,984.1045
2022-08-17T11:49:00.883Z,984.0691